createdAt,value
2019-03-23T00:00:04.039Z,23.00
2019-03-23T00:01:04.033Z,24.70
2019-03-23T00:02:04.031Z,22.50
2019-03-23T00:03:04.004Z,22.80
2019-03-23T00:04:04.013Z,21.70
2019-03-23T00:05:04.012Z,22.70
2019-03-23T00:06:03.966Z,25.50
2019-03-23T00:07:03.975Z,24.30
2019-03-23T00:08:03.945Z,21.60
2019-03-23T00:09:03.950Z,25.90
2019-03-23T00:10:03.956Z,25.00
2019-03-23T00:11:03.930Z,23.50
2019-03-23T00:12:03.944Z,21.60
2019-03-23T00:13:03.920Z,26.20
2019-03-23T00:14:03.877Z,27.00
2019-03-23T00:15:03.890Z,26.00
2019-03-23T00:16:03.852Z,26.70
2019-03-23T00:17:03.865Z,25.90
2019-03-23T00:18:03.849Z,25.00
2019-03-23T00:19:03.832Z,24.80
2019-03-23T00:20:03.809Z,25.60
2019-03-23T00:21:03.801Z,23.50
2019-03-23T00:22:03.827Z,24.80
2019-03-23T00:23:03.808Z,25.20
2019-03-23T00:24:03.761Z,24.80
2019-03-23T00:25:03.786Z,26.00
2019-03-23T00:26:03.740Z,25.50
2019-03-23T00:27:03.777Z,24.50
2019-03-23T00:28:03.719Z,26.70
2019-03-23T00:29:03.721Z,24.80
2019-03-23T00:30:03.699Z,26.90
2019-03-23T00:31:03.718Z,23.40
2019-03-23T00:32:03.707Z,23.30
2019-03-23T00:33:03.667Z,26.70
2019-03-23T00:34:03.650Z,27.20
2019-03-23T00:35:03.637Z,26.90
2019-03-23T00:36:03.650Z,25.50
2019-03-23T00:37:03.622Z,26.40
2019-03-23T00:38:03.605Z,26.00
2019-03-23T00:39:03.601Z,26.30
2019-03-23T00:40:03.606Z,26.20
2019-03-23T00:41:03.571Z,27.00
2019-03-23T00:42:03.564Z,26.60
2019-03-23T00:43:03.580Z,27.60
2019-03-23T00:44:03.541Z,27.00
2019-03-23T00:45:03.527Z,25.10
2019-03-23T00:46:03.548Z,26.40
2019-03-23T00:47:03.533Z,25.90
2019-03-23T00:48:03.546Z,23.70
2019-03-23T00:49:03.509Z,24.60
2019-03-23T00:50:03.470Z,25.90
2019-03-23T00:51:03.461Z,27.70
2019-03-23T00:52:03.472Z,27.80
2019-03-23T00:53:03.435Z,26.80
2019-03-23T00:54:03.454Z,28.50
2019-03-23T00:55:03.451Z,27.50
2019-03-23T00:56:03.403Z,28.60
2019-03-23T00:57:03.410Z,27.80
2019-03-23T00:58:03.428Z,27.70
2019-03-23T00:59:03.419Z,25.70
2019-03-23T01:00:03.364Z,26.30
2019-03-23T01:01:03.370Z,27.60
2019-03-23T01:02:03.336Z,27.80
2019-03-23T01:03:03.352Z,26.80
2019-03-23T01:04:03.337Z,25.90
2019-03-23T01:05:03.349Z,26.30
2019-03-23T01:06:03.318Z,26.70
2019-03-23T01:07:03.280Z,26.20
2019-03-23T01:08:03.273Z,26.20
2019-03-23T01:09:03.258Z,25.70
2019-03-23T01:10:03.268Z,24.70
2019-03-23T01:11:03.238Z,25.90
2019-03-23T01:12:03.259Z,26.00
2019-03-23T01:13:03.246Z,24.80
2019-03-23T01:14:03.251Z,25.80
2019-03-23T01:15:03.198Z,25.20
2019-03-23T01:16:03.201Z,23.60
2019-03-23T01:17:03.221Z,26.10
2019-03-23T01:18:03.213Z,26.60
2019-03-23T01:19:03.193Z,27.40
2019-03-23T01:20:03.168Z,25.80
2019-03-23T01:21:03.151Z,27.60
2019-03-23T01:22:03.118Z,29.20
2019-03-23T01:23:03.154Z,27.60
2019-03-23T01:24:03.091Z,27.50
2019-03-23T01:25:03.105Z,29.40
2019-03-23T01:26:03.192Z,28.70
2019-03-23T01:27:03.074Z,29.70
2019-03-23T01:28:03.045Z,27.60
2019-03-23T01:29:03.033Z,29.00
2019-03-23T01:30:03.028Z,27.10
2019-03-23T01:31:03.041Z,28.90
2019-03-23T01:32:02.999Z,28.30
2019-03-23T01:33:02.993Z,28.50
2019-03-23T01:34:02.983Z,28.40
2019-03-23T01:35:02.988Z,28.50
2019-03-23T01:36:02.954Z,28.60
2019-03-23T01:37:03.213Z,30.20
2019-03-23T01:38:02.936Z,29.90
2019-03-23T01:39:02.922Z,28.90
2019-03-23T01:40:02.909Z,29.40
2019-03-23T01:41:02.924Z,28.20
2019-03-23T01:42:02.911Z,30.40
2019-03-23T01:43:02.876Z,30.10
2019-03-23T01:44:02.880Z,29.10
2019-03-23T01:45:02.853Z,30.90
2019-03-23T01:46:02.841Z,31.00
2019-03-23T01:47:02.854Z,31.70
2019-03-23T01:48:02.819Z,29.90
2019-03-23T01:49:02.810Z,29.80
2019-03-23T01:50:02.800Z,30.20
2019-03-23T01:51:02.790Z,30.60
2019-03-23T01:52:02.799Z,30.50
2019-03-23T01:53:02.763Z,30.00
2019-03-23T01:54:02.776Z,31.80
2019-03-23T01:55:02.745Z,31.30
2019-03-23T01:56:02.734Z,31.30
2019-03-23T01:57:02.722Z,30.60
2019-03-23T01:58:02.736Z,31.40
2019-03-23T01:59:02.696Z,30.00
2019-03-23T02:00:02.686Z,30.60
2019-03-23T02:01:02.674Z,31.40
2019-03-23T02:02:02.663Z,30.20
2019-03-23T02:03:02.673Z,31.20
2019-03-23T02:04:02.642Z,28.30
2019-03-23T02:05:02.631Z,30.60
2019-03-23T02:06:02.678Z,29.20
2019-03-23T02:07:13.204Z,31.10
2019-03-23T02:08:03.600Z,30.30
2019-03-23T02:09:02.585Z,30.30
2019-03-23T02:10:02.573Z,32.50
2019-03-23T02:11:02.590Z,30.10
2019-03-23T02:12:02.557Z,30.00
2019-03-23T02:13:02.539Z,30.50
2019-03-23T02:14:02.525Z,31.50
2019-03-23T02:15:02.515Z,29.90
2019-03-23T02:16:02.529Z,30.00
2019-03-23T02:17:02.492Z,31.40
2019-03-23T02:18:02.481Z,30.80
2019-03-23T02:19:02.500Z,32.00
2019-03-23T02:20:02.464Z,31.20
2019-03-23T02:21:02.447Z,30.80
2019-03-23T02:22:02.445Z,27.80
2019-03-23T02:23:02.430Z,31.60
2019-03-23T02:24:02.436Z,29.80
2019-03-23T02:25:02.404Z,32.50
2019-03-23T02:26:02.390Z,30.10
2019-03-23T02:27:02.382Z,31.00
2019-03-23T02:28:02.368Z,31.40
2019-03-23T02:29:02.380Z,31.10
2019-03-23T02:30:02.354Z,30.30
2019-03-23T02:31:02.342Z,31.60
2019-03-23T02:32:02.330Z,30.90
2019-03-23T02:33:02.346Z,29.70
2019-03-23T02:34:02.316Z,28.70
2019-03-23T02:35:02.297Z,30.10
2019-03-23T02:36:02.285Z,28.40
2019-03-23T02:37:02.271Z,28.90
2019-03-23T02:38:02.281Z,28.50
2019-03-23T02:39:02.251Z,29.90
2019-03-23T02:40:02.240Z,30.80
2019-03-23T02:41:02.254Z,30.70
2019-03-23T02:42:02.244Z,31.20
2019-03-23T02:43:02.205Z,31.50
2019-03-23T02:44:02.191Z,31.80
2019-03-23T02:45:02.185Z,30.90
2019-03-23T02:46:02.172Z,30.30
2019-03-23T02:47:02.189Z,29.70
2019-03-23T02:48:02.151Z,29.90
2019-03-23T02:49:02.140Z,32.60
2019-03-23T02:50:02.130Z,27.90
2019-03-23T02:51:02.119Z,26.10
2019-03-23T02:52:02.130Z,26.80
2019-03-23T02:53:02.103Z,24.30
2019-03-23T02:54:02.083Z,30.10
2019-03-23T02:55:02.091Z,29.20
2019-03-23T02:56:02.062Z,29.40
2019-03-23T02:57:02.076Z,28.90
2019-03-23T02:58:02.037Z,28.70
2019-03-23T02:59:02.028Z,28.40
2019-03-23T03:00:02.013Z,28.50
2019-03-23T03:01:02.007Z,29.30
2019-03-23T03:02:02.014Z,26.60
2019-03-23T03:03:01.977Z,28.80
2019-03-23T03:04:01.980Z,28.10
2019-03-23T03:05:01.963Z,30.30
2019-03-23T03:06:01.951Z,30.60
2019-03-23T03:07:01.960Z,31.60
2019-03-23T03:08:01.951Z,29.40
2019-03-23T03:09:01.910Z,29.30
2019-03-23T03:10:01.909Z,31.80
2019-03-23T03:11:01.905Z,31.20
2019-03-23T03:12:01.892Z,31.10
2019-03-23T03:13:01.878Z,30.30
2019-03-23T03:14:01.900Z,30.80
2019-03-23T03:15:01.851Z,30.10
2019-03-23T03:16:01.836Z,30.20
2019-03-23T03:17:01.827Z,30.00
2019-03-23T03:18:01.813Z,28.80
2019-03-23T03:19:01.843Z,30.80
2019-03-23T03:20:01.788Z,32.10
2019-03-23T03:21:01.779Z,31.80
2019-03-23T03:22:01.769Z,31.30
2019-03-23T03:23:01.760Z,30.10
2019-03-23T03:24:01.767Z,29.70
2019-03-23T03:25:01.737Z,30.50
2019-03-23T03:26:01.724Z,30.70
2019-03-23T03:27:01.742Z,31.10
2019-03-23T03:28:01.701Z,30.60
2019-03-23T03:29:01.689Z,31.90
2019-03-23T03:30:01.711Z,31.40
2019-03-23T03:31:01.725Z,29.30
2019-03-23T03:32:01.658Z,29.40
2019-03-23T03:33:01.660Z,32.70
2019-03-23T03:34:01.649Z,29.30
2019-03-23T03:35:01.736Z,28.10
2019-03-23T03:36:01.608Z,30.90
2019-03-23T03:37:01.599Z,30.30
2019-03-23T03:38:01.587Z,31.10
2019-03-23T03:39:01.578Z,31.20
2019-03-23T03:40:01.590Z,29.60
2019-03-23T03:41:01.551Z,30.00
2019-03-23T03:42:01.541Z,33.80
2019-03-23T03:43:01.556Z,31.40
2019-03-23T03:44:01.549Z,31.40
2019-03-23T03:45:01.508Z,31.70
2019-03-23T03:46:01.499Z,32.60
2019-03-23T03:47:01.489Z,31.40
2019-03-23T03:48:01.481Z,29.00
2019-03-23T03:49:11.735Z,34.80
2019-03-23T03:50:02.451Z,29.30
2019-03-23T03:51:01.444Z,28.20
2019-03-23T03:52:01.435Z,33.30
2019-03-23T03:53:01.447Z,33.70
2019-03-23T03:54:01.411Z,33.30
2019-03-23T03:55:01.422Z,29.50
2019-03-23T03:56:01.385Z,31.60
2019-03-23T03:57:01.376Z,32.80
2019-03-23T03:58:01.396Z,33.80
2019-03-23T03:59:01.361Z,32.50
2019-03-23T04:00:01.337Z,32.40
2019-03-23T04:01:01.335Z,30.30
2019-03-23T04:02:01.320Z,31.50
2019-03-23T04:03:01.346Z,32.10
2019-03-23T04:04:01.297Z,33.00
2019-03-23T04:05:01.345Z,26.30
2019-03-23T04:06:01.270Z,32.90
2019-03-23T04:07:01.259Z,29.30
2019-03-23T04:08:10.896Z,29.00
2019-03-23T04:09:02.244Z,27.40
2019-03-23T04:10:01.244Z,27.60
2019-03-23T04:11:01.215Z,28.20
2019-03-23T04:12:01.209Z,30.70
2019-03-23T04:13:01.220Z,35.10
2019-03-23T04:14:01.223Z,30.50
2019-03-23T04:15:01.172Z,30.10
2019-03-23T04:16:01.166Z,32.40
2019-03-23T04:17:01.151Z,33.50
2019-03-23T04:18:01.140Z,33.20
2019-03-23T04:19:01.152Z,31.70
2019-03-23T04:20:01.115Z,31.50
2019-03-23T04:21:01.105Z,31.50
2019-03-23T04:22:01.100Z,34.30
2019-03-23T04:23:01.116Z,33.00
2019-03-23T04:24:01.076Z,30.20
2019-03-23T04:25:01.062Z,27.10
2019-03-23T04:26:01.056Z,31.40
2019-03-23T04:27:01.041Z,28.00
2019-03-23T04:28:01.052Z,32.50
2019-03-23T04:29:01.013Z,26.70
2019-03-23T04:30:01.001Z,27.70
2019-03-23T04:31:01.018Z,28.00
2019-03-23T04:32:00.982Z,27.30
2019-03-23T04:33:00.972Z,25.20
2019-03-23T04:34:00.963Z,25.70
2019-03-23T04:35:00.949Z,26.10
2019-03-23T04:36:00.981Z,26.90
2019-03-23T04:37:00.934Z,28.70
2019-03-23T04:38:00.920Z,27.50
2019-03-23T04:39:00.902Z,25.20
2019-03-23T04:40:00.895Z,26.40
2019-03-23T04:41:00.909Z,22.20
2019-03-23T04:42:00.867Z,25.10
2019-03-23T04:43:00.860Z,21.50
2019-03-23T04:44:00.849Z,22.00
2019-03-23T04:45:00.855Z,25.10
2019-03-23T04:46:00.821Z,23.10
2019-03-23T04:47:00.817Z,22.60
2019-03-23T04:48:00.818Z,24.90
2019-03-23T04:49:00.790Z,25.30
2019-03-23T04:50:00.783Z,23.40
2019-03-23T04:51:00.767Z,24.10
2019-03-23T04:52:00.754Z,24.70
2019-03-23T04:53:00.779Z,25.70
2019-03-23T04:54:00.737Z,23.30
2019-03-23T04:55:00.724Z,23.40
2019-03-23T04:56:00.711Z,30.60
2019-03-23T04:57:00.703Z,29.30
2019-03-23T04:58:00.714Z,26.50
2019-03-23T04:59:00.690Z,25.00
2019-03-23T05:00:00.666Z,26.60
2019-03-23T05:01:00.691Z,26.50
2019-03-23T05:02:00.647Z,25.80
2019-03-23T05:03:00.635Z,25.20
2019-03-23T05:04:00.624Z,25.00
2019-03-23T05:05:00.617Z,24.40
2019-03-23T05:06:00.640Z,27.00
2019-03-23T05:07:00.589Z,23.00
2019-03-23T05:08:00.579Z,23.20
2019-03-23T05:09:00.565Z,23.10
2019-03-23T05:10:00.558Z,27.00
2019-03-23T05:11:00.569Z,25.90
2019-03-23T05:12:00.541Z,24.00
2019-03-23T05:13:00.522Z,25.90
2019-03-23T05:14:00.512Z,23.50
2019-03-23T05:15:00.525Z,21.50
2019-03-23T05:16:00.494Z,23.80
2019-03-23T05:17:00.479Z,24.50
2019-03-23T05:18:00.492Z,22.30
2019-03-23T05:19:00.484Z,23.50
2019-03-23T05:20:00.442Z,23.20
2019-03-23T05:21:00.432Z,27.30
2019-03-23T05:22:00.420Z,23.90
2019-03-23T05:23:00.415Z,26.90
2019-03-23T05:24:00.433Z,22.60
2019-03-23T05:25:00.453Z,23.60
2019-03-23T05:26:00.375Z,23.30
2019-03-23T05:27:00.363Z,23.70
2019-03-23T05:28:00.359Z,27.10
2019-03-23T05:29:00.367Z,24.40
2019-03-23T05:30:00.366Z,24.20
2019-03-23T05:31:00.322Z,21.40
2019-03-23T05:32:00.308Z,21.50
2019-03-23T05:33:00.318Z,24.30
2019-03-23T05:34:00.291Z,25.00
2019-03-23T05:35:00.363Z,25.70
2019-03-23T05:36:00.268Z,26.20
2019-03-23T05:37:00.253Z,27.20
2019-03-23T05:38:00.245Z,27.80
2019-03-23T05:39:00.232Z,27.00
2019-03-23T05:40:00.343Z,25.90
2019-03-23T05:41:00.207Z,25.80
2019-03-23T05:42:00.200Z,25.70
2019-03-23T05:43:00.189Z,25.10
2019-03-23T05:44:00.196Z,24.30
2019-03-23T05:45:00.344Z,24.30
2019-03-23T05:46:00.151Z,23.20
2019-03-23T05:47:00.145Z,25.40
2019-03-23T05:48:00.133Z,24.70
2019-03-23T05:49:00.132Z,24.70
2019-03-23T05:50:00.191Z,23.80
2019-03-23T05:51:00.118Z,25.50
2019-03-23T05:52:01.557Z,24.00
2019-03-23T05:53:00.074Z,25.10
2019-03-23T05:54:00.061Z,25.10
2019-03-23T05:55:00.055Z,25.50
2019-03-23T05:56:00.069Z,23.90
2019-03-23T05:57:00.029Z,25.10
2019-03-23T05:58:00.019Z,24.90
2019-03-23T05:59:00.009Z,23.80
2019-03-23T06:00:00.023Z,25.10
2019-03-23T06:00:59.983Z,26.60
2019-03-23T06:01:59.979Z,24.50
2019-03-23T06:02:59.963Z,25.00
2019-03-23T06:03:59.950Z,24.00
2019-03-23T06:04:59.965Z,23.60
2019-03-23T06:05:59.938Z,24.50
2019-03-23T06:06:59.916Z,24.30
2019-03-23T06:07:59.908Z,22.50
2019-03-23T06:08:59.914Z,22.80
2019-03-23T06:09:59.896Z,22.90
2019-03-23T06:10:59.874Z,21.90
2019-03-23T06:11:59.864Z,24.50
2019-03-23T06:12:59.877Z,24.10
2019-03-23T06:13:59.843Z,23.60
2019-03-23T06:14:59.825Z,24.20
2019-03-23T06:15:59.844Z,24.40
2019-03-23T06:16:59.831Z,24.60
2019-03-23T06:17:59.877Z,24.60
2019-03-23T06:18:59.781Z,23.40
2019-03-23T06:19:59.774Z,25.10
2019-03-23T06:20:59.759Z,24.20
2019-03-23T06:21:59.779Z,22.90
2019-03-23T06:22:59.735Z,23.30
2019-03-23T06:23:59.728Z,25.90
2019-03-23T06:24:59.717Z,24.10
2019-03-23T06:25:59.736Z,24.60
2019-03-23T06:26:59.719Z,23.80
2019-03-23T06:27:59.680Z,22.50
2019-03-23T06:28:59.668Z,23.80
2019-03-23T06:29:59.686Z,24.40
2019-03-23T06:30:59.652Z,22.90
2019-03-23T06:31:59.639Z,21.60
2019-03-23T06:32:59.624Z,23.20
2019-03-23T06:33:59.613Z,23.20
2019-03-23T06:34:59.631Z,23.30
2019-03-23T06:35:59.617Z,22.80
2019-03-23T06:36:59.581Z,22.60
2019-03-23T06:37:59.568Z,23.20
2019-03-23T06:39:05.443Z,21.90
2019-03-23T06:40:00.547Z,22.70
2019-03-23T06:40:59.560Z,22.30
2019-03-23T06:41:59.523Z,22.00
2019-03-23T06:43:00.113Z,23.20
2019-03-23T06:43:59.500Z,25.40
2019-03-23T06:44:59.494Z,24.40
2019-03-23T06:45:59.480Z,23.80
2019-03-23T06:46:59.498Z,24.10
2019-03-23T06:47:59.461Z,24.00
2019-03-23T06:48:59.444Z,23.50
2019-03-23T06:49:59.437Z,23.90
2019-03-23T06:50:59.425Z,25.70
2019-03-23T06:51:59.441Z,25.30
2019-03-23T06:52:59.403Z,24.40
2019-03-23T06:53:59.426Z,25.40
2019-03-23T06:54:59.394Z,25.60
2019-03-23T06:55:59.367Z,26.40
2019-03-23T06:56:59.355Z,26.70
2019-03-23T06:57:59.376Z,26.10
2019-03-23T06:58:59.332Z,27.20
2019-03-23T06:59:59.324Z,27.10
2019-03-23T07:00:59.314Z,30.50
2019-03-23T07:01:59.302Z,30.40
2019-03-23T07:02:59.315Z,31.00
2019-03-23T07:03:59.283Z,30.10
2019-03-23T07:04:59.264Z,30.20
2019-03-23T07:05:59.254Z,30.60
2019-03-23T07:06:59.243Z,29.90
2019-03-23T07:07:59.257Z,30.00
2019-03-23T07:08:59.220Z,31.30
2019-03-23T07:09:59.212Z,31.10
2019-03-23T07:10:59.729Z,30.30
2019-03-23T07:11:59.217Z,31.10
2019-03-23T07:12:59.181Z,31.80
2019-03-23T07:13:59.165Z,31.50
2019-03-23T07:14:59.153Z,32.40
2019-03-23T07:15:59.147Z,30.50
2019-03-23T07:16:59.156Z,30.10
2019-03-23T07:17:59.123Z,30.50
2019-03-23T07:18:59.109Z,32.90
2019-03-23T07:19:59.122Z,31.30
2019-03-23T07:20:59.093Z,31.30
2019-03-23T07:21:59.100Z,30.20
2019-03-23T07:22:59.063Z,30.50
2019-03-23T07:23:59.056Z,31.70
2019-03-23T07:24:59.044Z,31.30
2019-03-23T07:25:59.060Z,32.70
2019-03-23T07:26:59.022Z,31.80
2019-03-23T07:27:59.011Z,31.50
2019-03-23T07:28:59.001Z,30.50
2019-03-23T07:29:58.985Z,31.20
2019-03-23T07:30:59.009Z,31.50
2019-03-23T07:32:05.594Z,29.20
2019-03-23T07:32:59.951Z,29.70
2019-03-23T07:33:58.944Z,30.00
2019-03-23T07:34:58.930Z,30.50
2019-03-23T07:35:58.942Z,30.50
2019-03-23T07:36:58.909Z,30.40
2019-03-23T07:37:58.898Z,28.80
2019-03-23T07:38:58.883Z,29.50
2019-03-23T07:39:58.874Z,29.10
2019-03-23T07:40:58.883Z,29.20
2019-03-23T07:41:58.876Z,28.60
2019-03-23T07:42:58.838Z,28.80
2019-03-23T07:43:58.824Z,28.00
2019-03-23T07:44:58.820Z,27.90
2019-03-23T07:45:58.817Z,27.70
2019-03-23T07:46:58.819Z,27.60
2019-03-23T07:47:58.784Z,27.10
2019-03-23T07:48:58.778Z,27.00
2019-03-23T07:49:58.759Z,27.50
2019-03-23T07:50:58.750Z,26.70
2019-03-23T07:51:58.764Z,27.00
2019-03-23T07:52:58.725Z,25.50
2019-03-23T07:53:58.716Z,25.50
2019-03-23T07:54:58.726Z,25.30
2019-03-23T07:55:58.695Z,25.80
2019-03-23T07:56:58.679Z,25.70
2019-03-23T07:57:58.695Z,24.30
2019-03-23T07:58:58.657Z,24.90
2019-03-23T07:59:58.647Z,26.60
2019-03-23T08:00:58.662Z,24.80
2019-03-23T08:01:58.622Z,25.40
2019-03-23T08:02:58.617Z,26.10
2019-03-23T08:03:58.600Z,25.70
2019-03-23T08:04:58.590Z,25.70
2019-03-23T08:05:58.601Z,25.10
2019-03-23T08:06:58.567Z,24.90
2019-03-23T08:07:58.562Z,24.80
2019-03-23T08:08:58.551Z,24.40
2019-03-23T08:09:58.548Z,23.70
2019-03-23T08:10:58.547Z,24.00
2019-03-23T08:11:58.509Z,22.70
2019-03-23T08:12:58.548Z,22.80
2019-03-23T08:13:58.493Z,22.60
2019-03-23T08:14:58.482Z,22.90
2019-03-23T08:15:58.498Z,23.20
2019-03-23T08:16:58.472Z,22.90
2019-03-23T08:17:58.450Z,22.50
2019-03-23T08:18:58.443Z,20.60
2019-03-23T08:19:58.448Z,21.30
2019-03-23T08:20:58.463Z,21.60
2019-03-23T08:21:58.401Z,21.10
2019-03-23T08:22:58.498Z,21.70
2019-03-23T08:23:58.373Z,20.70
2019-03-23T08:24:58.390Z,20.60
2019-03-23T08:25:58.355Z,19.50
2019-03-23T08:26:58.341Z,20.50
2019-03-23T08:27:58.362Z,19.40
2019-03-23T08:28:58.318Z,20.30
2019-03-23T08:29:58.334Z,19.20
2019-03-23T08:30:58.297Z,19.50
2019-03-23T08:31:58.287Z,19.10
2019-03-23T08:32:58.298Z,19.70
2019-03-23T08:33:58.265Z,19.00
2019-03-23T08:34:58.251Z,19.00
2019-03-23T08:35:58.244Z,18.20
2019-03-23T08:36:58.230Z,18.60
2019-03-23T08:37:58.247Z,18.30
2019-03-23T08:38:58.209Z,18.10
2019-03-23T08:39:58.201Z,18.80
2019-03-23T08:40:58.188Z,18.30
2019-03-23T08:41:58.176Z,18.80
2019-03-23T08:42:58.186Z,18.70
2019-03-23T08:43:58.152Z,18.60
2019-03-23T08:44:58.139Z,18.30
2019-03-23T08:45:58.131Z,18.40
2019-03-23T08:46:58.121Z,17.90
2019-03-23T08:47:58.180Z,17.50
2019-03-23T08:48:58.101Z,17.10
2019-03-23T08:49:59.661Z,17.80
2019-03-23T08:50:58.113Z,18.70
2019-03-23T08:51:58.059Z,18.00
2019-03-23T08:52:58.052Z,17.80
2019-03-23T08:53:58.037Z,17.10
2019-03-23T08:54:58.050Z,17.20
2019-03-23T08:55:58.020Z,18.70
2019-03-23T08:56:58.011Z,18.30
2019-03-23T08:57:57.999Z,17.90
2019-03-23T08:58:57.982Z,18.20
2019-03-23T08:59:57.997Z,18.20
2019-03-23T09:00:58.013Z,18.00
2019-03-23T09:01:57.947Z,18.90
2019-03-23T09:02:57.943Z,18.80
2019-03-23T09:03:57.924Z,18.50
2019-03-23T09:04:57.938Z,18.40
2019-03-23T09:05:57.902Z,18.60
2019-03-23T09:06:57.897Z,17.90
2019-03-23T09:07:57.881Z,18.80
2019-03-23T09:08:57.891Z,18.20
2019-03-23T09:09:59.340Z,19.20
2019-03-23T09:10:57.846Z,19.30
2019-03-23T09:11:57.850Z,19.10
2019-03-23T09:12:57.827Z,18.20
2019-03-23T09:13:57.840Z,18.20
2019-03-23T09:14:57.798Z,18.90
2019-03-23T09:15:57.791Z,19.20
2019-03-23T09:16:57.776Z,18.70
2019-03-23T09:17:57.769Z,19.00
2019-03-23T09:18:57.768Z,18.30
2019-03-23T09:19:57.753Z,18.50
2019-03-23T09:20:57.730Z,18.20
2019-03-23T09:21:57.752Z,18.30
2019-03-23T09:22:57.712Z,18.00
2019-03-23T09:23:57.708Z,18.50
2019-03-23T09:24:57.690Z,19.70
2019-03-23T09:25:57.678Z,19.30
2019-03-23T09:26:57.687Z,18.60
2019-03-23T09:27:57.673Z,18.80
2019-03-23T09:28:57.645Z,18.40
2019-03-23T09:29:57.633Z,18.70
2019-03-23T09:30:57.635Z,19.40
2019-03-23T09:31:57.634Z,18.50
2019-03-23T09:32:57.602Z,19.60
2019-03-23T09:33:57.587Z,19.50
2019-03-23T09:34:57.595Z,19.50
2019-03-23T09:35:57.567Z,19.30
2019-03-23T09:36:57.578Z,18.80
2019-03-23T09:37:57.541Z,20.10
2019-03-23T09:38:57.532Z,20.00
2019-03-23T09:39:58.750Z,20.80
2019-03-23T09:40:57.508Z,20.60
2019-03-23T09:41:57.515Z,20.60
2019-03-23T09:42:57.486Z,20.80
2019-03-23T09:43:57.471Z,20.70
2019-03-23T09:44:57.465Z,21.30
2019-03-23T09:45:57.448Z,22.60
2019-03-23T09:46:57.479Z,21.90
2019-03-23T09:47:57.431Z,22.40
2019-03-23T09:48:57.415Z,21.80
2019-03-23T09:49:57.404Z,21.70
2019-03-23T09:50:57.397Z,21.70
2019-03-23T09:51:57.410Z,20.60
2019-03-23T09:52:57.392Z,22.10
2019-03-23T09:53:57.362Z,21.50
2019-03-23T09:54:57.353Z,22.60
2019-03-23T09:55:57.340Z,21.70
2019-03-23T09:56:59.515Z,20.90
2019-03-23T09:57:57.342Z,22.40
2019-03-23T09:58:57.311Z,22.10
2019-03-23T09:59:57.291Z,22.10
2019-03-23T10:00:57.284Z,22.60
2019-03-23T10:01:57.275Z,21.90
2019-03-23T10:02:57.279Z,22.60
2019-03-23T10:03:57.246Z,22.10
2019-03-23T10:04:57.235Z,21.50
2019-03-23T10:05:57.226Z,22.10
2019-03-23T10:06:57.213Z,20.70
2019-03-23T10:07:57.230Z,21.30
2019-03-23T10:08:57.233Z,21.20
2019-03-23T10:09:57.184Z,20.50
2019-03-23T10:10:57.172Z,21.20
2019-03-23T10:11:59.131Z,21.90
2019-03-23T10:12:57.147Z,22.00
2019-03-23T10:13:57.160Z,21.70
2019-03-23T10:14:57.122Z,23.60
2019-03-23T10:15:57.117Z,23.20
2019-03-23T10:16:57.105Z,23.20
2019-03-23T10:17:57.115Z,22.40
2019-03-23T10:18:57.080Z,22.30
2019-03-23T10:19:57.072Z,22.40
2019-03-23T10:20:57.059Z,22.00
2019-03-23T10:21:57.046Z,22.00
2019-03-23T10:22:57.053Z,22.90
2019-03-23T10:23:57.029Z,23.00
2019-03-23T10:24:57.007Z,23.20
2019-03-23T10:25:56.997Z,24.10
2019-03-23T10:26:56.993Z,23.60
2019-03-23T10:27:56.995Z,20.80
2019-03-23T10:28:56.966Z,23.10
2019-03-23T10:29:56.979Z,22.90
2019-03-23T10:30:56.962Z,23.00
2019-03-23T10:31:56.934Z,22.90
2019-03-23T10:32:56.937Z,22.60
2019-03-23T10:33:56.928Z,23.10
2019-03-23T10:34:56.903Z,24.70
2019-03-23T10:35:56.884Z,23.90
2019-03-23T10:36:56.887Z,24.10
2019-03-23T10:37:56.888Z,25.10
2019-03-23T10:38:56.854Z,25.50
2019-03-23T10:39:56.874Z,26.30
2019-03-23T10:40:56.832Z,26.50
2019-03-23T10:41:56.849Z,27.70
2019-03-23T10:42:56.806Z,26.20
2019-03-23T10:43:56.799Z,27.70
2019-03-23T10:44:56.786Z,26.30
2019-03-23T10:45:56.772Z,27.10
2019-03-23T10:46:56.784Z,27.90
2019-03-23T10:48:56.744Z,30.10
2019-03-23T10:49:56.733Z,29.10
2019-03-23T10:50:56.742Z,32.30
2019-03-23T10:51:56.705Z,34.30
2019-03-23T10:52:56.697Z,34.80
2019-03-23T10:53:56.689Z,33.50
2019-03-23T10:54:56.676Z,31.30
2019-03-23T10:55:56.690Z,32.10
2019-03-23T10:56:56.648Z,32.20
2019-03-23T10:57:56.639Z,32.70
2019-03-23T10:58:56.658Z,33.80
2019-03-23T10:59:56.616Z,34.80
2019-03-23T11:00:56.606Z,35.30
2019-03-23T11:01:56.595Z,34.00
2019-03-23T11:02:56.586Z,35.20
2019-03-23T11:03:56.600Z,36.80
2019-03-23T11:04:56.567Z,36.20
2019-03-23T11:05:56.552Z,34.90
2019-03-23T11:06:56.539Z,36.60
2019-03-23T11:07:56.530Z,37.20
2019-03-23T11:08:56.559Z,37.70
2019-03-23T11:09:56.506Z,35.50
2019-03-23T11:10:56.497Z,37.20
2019-03-23T11:11:56.484Z,37.90
2019-03-23T11:12:56.496Z,37.00
2019-03-23T11:13:56.460Z,38.10
2019-03-23T11:14:56.453Z,40.50
2019-03-23T11:15:56.440Z,40.30
2019-03-23T11:16:56.426Z,41.40
2019-03-23T11:17:56.450Z,41.80
2019-03-23T11:18:56.401Z,41.90
2019-03-23T11:19:58.442Z,41.20
2019-03-23T11:20:56.382Z,42.20
2019-03-23T11:21:56.367Z,41.40
2019-03-23T11:22:56.403Z,43.30
2019-03-23T11:23:56.347Z,42.40
2019-03-23T11:24:56.337Z,42.30
2019-03-23T11:25:56.323Z,42.40
2019-03-23T11:26:56.315Z,41.60
2019-03-23T11:27:56.319Z,41.90
2019-03-23T11:28:56.297Z,42.40
2019-03-23T11:29:56.278Z,42.50
2019-03-23T11:30:56.271Z,41.00
2019-03-23T11:31:56.261Z,41.60
2019-03-23T11:32:56.271Z,41.40
2019-03-23T11:33:56.260Z,42.30
2019-03-23T11:34:56.252Z,42.20
2019-03-23T11:35:57.979Z,43.30
2019-03-23T11:36:56.203Z,43.40
2019-03-23T11:37:56.444Z,45.00
2019-03-23T11:38:56.200Z,45.30
2019-03-23T11:39:56.165Z,44.70
2019-03-23T11:40:56.168Z,45.90
2019-03-23T11:41:56.148Z,44.80
2019-03-23T11:42:56.132Z,43.50
2019-03-23T11:43:56.153Z,45.20
2019-03-23T11:44:56.183Z,45.60
2019-03-23T11:45:56.100Z,47.10
2019-03-23T11:46:56.086Z,46.80
2019-03-23T11:47:56.105Z,47.10
2019-03-23T11:48:56.070Z,46.20
2019-03-23T11:49:56.058Z,46.20
2019-03-23T11:50:56.067Z,45.90
2019-03-23T11:51:56.034Z,46.40
2019-03-23T11:52:56.026Z,46.50
2019-03-23T11:53:56.012Z,48.60
2019-03-23T11:54:56.003Z,46.00
2019-03-23T11:55:56.013Z,50.70
2019-03-23T11:56:55.981Z,49.00
2019-03-23T11:57:55.968Z,52.20
2019-03-23T11:58:55.967Z,49.50
2019-03-23T11:59:55.948Z,48.30
2019-03-23T12:00:55.936Z,47.50
2019-03-23T12:01:55.922Z,47.10
2019-03-23T12:02:55.931Z,48.70
2019-03-23T12:03:55.898Z,47.40
2019-03-23T12:04:55.887Z,46.90
2019-03-23T12:05:55.876Z,46.80
2019-03-23T12:06:55.865Z,47.60
2019-03-23T12:07:55.873Z,48.40
2019-03-23T12:08:55.867Z,47.90
2019-03-23T12:09:56.130Z,49.30
2019-03-23T12:11:02.842Z,48.60
2019-03-23T12:11:56.828Z,49.10
2019-03-23T12:12:55.804Z,47.20
2019-03-23T12:13:55.784Z,49.20
2019-03-23T12:14:55.775Z,47.80
2019-03-23T12:15:55.760Z,48.00
2019-03-23T12:16:55.774Z,49.40
2019-03-23T12:17:55.741Z,48.30
2019-03-23T12:18:55.730Z,48.80
2019-03-23T12:19:55.718Z,48.70
2019-03-23T12:20:55.710Z,48.30
2019-03-23T12:21:55.710Z,49.00
2019-03-23T12:22:55.702Z,48.90
2019-03-23T12:23:55.671Z,49.10
2019-03-23T12:24:55.662Z,49.20
2019-03-23T12:25:55.651Z,50.20
2019-03-23T12:26:55.637Z,47.50
2019-03-23T12:27:55.642Z,51.10
2019-03-23T12:28:55.613Z,48.20
2019-03-23T12:29:55.626Z,48.30
2019-03-23T12:30:55.597Z,51.10
2019-03-23T12:31:55.582Z,50.70
2019-03-23T12:32:55.571Z,50.00
2019-03-23T12:33:55.554Z,50.90
2019-03-23T12:34:55.576Z,48.90
2019-03-23T12:35:55.532Z,49.20
2019-03-23T12:36:55.522Z,51.00
2019-03-23T12:37:55.511Z,50.70
2019-03-23T12:38:55.505Z,50.40
2019-03-23T12:39:55.511Z,49.60
2019-03-23T12:40:55.482Z,50.60
2019-03-23T12:41:55.464Z,50.00
2019-03-23T12:42:55.454Z,49.40
2019-03-23T12:43:55.448Z,50.70
2019-03-23T12:44:55.453Z,49.80
2019-03-23T12:45:55.479Z,50.60
2019-03-23T12:46:55.408Z,50.90
2019-03-23T12:47:55.399Z,51.30
2019-03-23T12:48:55.411Z,49.80
2019-03-23T12:49:55.381Z,50.30
2019-03-23T12:50:55.363Z,50.50
2019-03-23T12:51:55.395Z,48.80
2019-03-23T12:52:57.387Z,49.80